createdAt,value
2023-05-21T00:02:15.575Z,22.17
2023-05-21T00:07:19.018Z,22.17
2023-05-21T00:12:21.942Z,25.67
2023-05-21T00:17:26.463Z,21.93
2023-05-21T00:22:29.422Z,23.95
2023-05-21T00:27:32.178Z,24.30
2023-05-21T00:32:34.926Z,24.05
2023-05-21T00:37:38.396Z,26.05
2023-05-21T00:42:42.583Z,26.83
2023-05-21T00:47:46.177Z,24.17
2023-05-21T00:52:49.302Z,25.10
2023-05-21T00:57:52.304Z,24.25
2023-05-21T01:02:55.617Z,28.63
2023-05-21T01:07:59.278Z,24.90
2023-05-21T01:13:02.358Z,24.00
2023-05-21T01:18:06.301Z,27.55
2023-05-21T01:23:09.294Z,27.00
2023-05-21T01:28:12.398Z,29.55
2023-05-21T01:33:18.184Z,27.93
2023-05-21T01:38:26.305Z,25.25
2023-05-21T01:43:31.914Z,26.60
2023-05-21T01:48:36.321Z,29.10
2023-05-21T01:53:41.827Z,27.92
2023-05-21T01:58:44.746Z,30.60
2023-05-21T02:03:47.683Z,30.58
2023-05-21T02:08:50.578Z,28.05
2023-05-21T02:13:54.752Z,26.85
2023-05-21T02:18:58.211Z,25.80
2023-05-21T02:24:01.223Z,33.40
2023-05-21T02:29:04.510Z,32.95
2023-05-21T02:34:09.065Z,30.20
2023-05-21T02:39:12.064Z,27.23
2023-05-21T02:44:14.950Z,33.85
2023-05-21T02:49:17.665Z,31.90
2023-05-21T02:54:22.799Z,31.65
2023-05-21T02:59:25.456Z,32.10
2023-05-21T03:04:28.646Z,29.70
2023-05-21T03:09:31.579Z,32.40
2023-05-21T03:14:35.647Z,32.33
2023-05-21T03:19:38.258Z,32.42
2023-05-21T03:24:41.616Z,33.13
2023-05-21T03:29:46.173Z,30.95
2023-05-21T03:34:49.049Z,30.35
2023-05-21T03:39:54.152Z,28.93
2023-05-21T03:44:57.020Z,29.52
2023-05-21T03:50:18.496Z,32.13
2023-05-21T03:55:21.329Z,30.27
2023-05-21T04:00:24.048Z,30.35
2023-05-21T04:05:26.721Z,32.20
2023-05-21T04:10:29.453Z,29.98
2023-05-21T04:15:32.739Z,29.10
2023-05-21T04:20:35.362Z,27.55
2023-05-21T04:25:38.940Z,24.58
2023-05-21T04:30:42.278Z,26.43
2023-05-21T04:35:46.524Z,24.90
2023-05-21T04:40:51.243Z,24.15
2023-05-21T04:45:57.452Z,25.60
2023-05-21T04:51:00.860Z,27.40
2023-05-21T04:56:04.248Z,20.37
2023-05-21T05:01:09.134Z,24.83
2023-05-21T05:06:12.124Z,27.05
2023-05-21T05:11:15.270Z,26.25
2023-05-21T05:16:18.237Z,25.55
2023-05-21T05:21:22.921Z,25.07
2023-05-21T05:26:26.390Z,23.25
2023-05-21T05:31:29.378Z,21.35
2023-05-21T05:36:32.551Z,21.42
2023-05-21T05:41:35.440Z,20.95
2023-05-21T05:46:38.551Z,19.60
2023-05-21T05:51:41.854Z,17.30
2023-05-21T05:56:44.690Z,18.90
2023-05-21T06:01:47.559Z,18.20
2023-05-21T06:06:51.184Z,15.68
2023-05-21T06:11:54.245Z,16.37
2023-05-21T06:16:57.286Z,17.25
2023-05-21T06:22:01.735Z,16.88
2023-05-21T06:27:05.386Z,15.00
2023-05-21T06:32:09.597Z,15.65
2023-05-21T06:37:12.464Z,14.13
2023-05-21T06:42:15.988Z,16.02
2023-05-21T06:47:37.449Z,17.08
2023-05-21T06:52:40.514Z,12.65
2023-05-21T06:57:44.058Z,17.25
2023-05-21T07:02:47.004Z,14.27
2023-05-21T07:07:50.913Z,14.35
2023-05-21T07:12:54.191Z,16.48
2023-05-21T07:17:57.279Z,13.18
2023-05-21T07:23:00.558Z,11.73
2023-05-21T07:28:06.427Z,13.77
2023-05-21T07:33:09.836Z,11.57
2023-05-21T07:38:13.008Z,12.88
2023-05-21T07:43:15.833Z,11.40
2023-05-21T07:48:19.556Z,11.05
2023-05-21T07:53:32.776Z,10.87
2023-05-21T07:58:40.773Z,10.40
2023-05-21T08:03:44.117Z,10.45
2023-05-21T08:08:47.162Z,10.13
2023-05-21T08:13:50.149Z,10.13
2023-05-21T08:18:53.346Z,11.57
2023-05-21T08:23:56.491Z,13.50
2023-05-21T08:28:59.812Z,10.43
2023-05-21T08:34:03.055Z,11.10
2023-05-21T08:39:17.018Z,12.02
2023-05-21T08:44:24.631Z,10.17
2023-05-21T08:49:31.529Z,8.98
2023-05-21T08:54:36.283Z,8.07
2023-05-21T08:59:43.589Z,8.52
2023-05-21T09:04:59.256Z,8.88
2023-05-21T09:10:08.643Z,7.93
2023-05-21T09:15:12.468Z,10.13
2023-05-21T09:20:16.795Z,9.10
2023-05-21T09:25:29.982Z,9.70
2023-05-21T09:30:38.096Z,7.13
2023-05-21T09:35:47.667Z,7.63
2023-05-21T09:40:52.026Z,7.40
2023-05-21T09:45:57.324Z,8.07
2023-05-21T09:51:18.165Z,7.47
2023-05-21T09:56:40.564Z,6.38
2023-05-21T10:01:44.386Z,6.77
2023-05-21T10:06:48.543Z,6.15
2023-05-21T10:11:54.732Z,6.38
2023-05-21T10:16:57.751Z,6.90
2023-05-21T10:22:01.827Z,6.05
2023-05-21T10:27:05.293Z,7.53
2023-05-21T10:32:08.466Z,6.68
2023-05-21T10:37:13.964Z,7.75
2023-05-21T10:42:32.220Z,4.07
2023-05-21T10:47:56.442Z,7.78
2023-05-21T10:53:18.377Z,5.43
2023-05-21T10:58:39.818Z,7.38
2023-05-21T11:03:43.111Z,5.45
2023-05-21T11:08:48.509Z,7.70
2023-05-21T11:13:51.452Z,8.88
2023-05-21T11:18:55.283Z,9.97
2023-05-21T11:24:02.860Z,8.07
2023-05-21T11:29:05.593Z,8.45
2023-05-21T11:34:11.718Z,5.80
2023-05-21T11:39:22.419Z,7.78
2023-05-21T11:44:47.072Z,7.87
2023-05-21T11:49:49.920Z,6.50
2023-05-21T11:54:57.644Z,6.60
2023-05-21T12:00:01.970Z,13.10
2023-05-21T12:05:07.504Z,10.45
2023-05-21T12:10:11.109Z,8.07
2023-05-21T12:15:14.191Z,6.03
2023-05-21T12:20:17.412Z,6.00
2023-05-21T12:25:23.204Z,4.47
2023-05-21T12:30:26.858Z,8.98
2023-05-21T12:35:32.106Z,6.67
2023-05-21T12:40:40.034Z,6.47
2023-05-21T12:45:43.939Z,6.82
2023-05-21T12:50:46.794Z,6.07
2023-05-21T12:55:49.591Z,6.25
2023-05-21T13:00:56.775Z,5.70
2023-05-21T13:06:00.487Z,6.63
2023-05-21T13:11:04.390Z,5.28
2023-05-21T13:16:07.661Z,7.00
2023-05-21T13:21:10.628Z,7.55
2023-05-21T13:26:13.516Z,6.23
2023-05-21T13:31:16.615Z,6.68
2023-05-21T13:36:19.775Z,5.57
2023-05-21T13:41:22.915Z,8.63
2023-05-21T13:46:26.007Z,5.75
2023-05-21T13:51:38.523Z,5.73
2023-05-21T13:56:42.255Z,7.57
2023-05-21T14:01:45.745Z,5.22
2023-05-21T14:06:48.864Z,5.82
2023-05-21T14:11:51.735Z,5.30
2023-05-21T14:16:54.743Z,5.60
2023-05-21T14:21:58.088Z,5.68
2023-05-21T14:27:01.064Z,6.38
2023-05-21T14:32:03.991Z,5.40
2023-05-21T14:37:07.276Z,6.00
2023-05-21T14:42:10.254Z,6.37
2023-05-21T14:47:13.148Z,6.72
2023-05-21T14:52:15.975Z,5.65
2023-05-21T14:57:18.838Z,5.30
2023-05-21T15:02:22.110Z,5.07
2023-05-21T15:07:24.993Z,5.63
2023-05-21T15:12:27.841Z,5.82
2023-05-21T15:17:30.653Z,4.80
2023-05-21T15:22:34.775Z,9.40
2023-05-21T15:27:37.966Z,4.80
2023-05-21T15:32:41.123Z,6.57
2023-05-21T15:37:45.815Z,5.72
2023-05-21T15:42:48.998Z,4.78
2023-05-21T15:47:52.225Z,7.85
2023-05-21T15:52:55.245Z,8.13
2023-05-21T15:57:59.584Z,6.63
2023-05-21T16:03:04.204Z,5.20
2023-05-21T16:08:07.293Z,5.50
2023-05-21T16:13:10.127Z,5.38
2023-05-21T16:18:12.916Z,7.45
2023-05-21T16:23:15.860Z,6.00
2023-05-21T16:28:18.759Z,5.85
2023-05-21T16:33:21.610Z,6.15
2023-05-21T16:38:24.625Z,6.72
2023-05-21T16:43:27.562Z,9.13
2023-05-21T16:48:33.843Z,6.93
2023-05-21T16:53:37.587Z,5.63
2023-05-21T16:58:40.404Z,6.32
2023-05-21T17:03:43.622Z,5.80
2023-05-21T17:08:46.565Z,8.43
2023-05-21T17:13:49.417Z,7.87
2023-05-21T17:18:52.332Z,8.65
2023-05-21T17:23:55.321Z,7.18
2023-05-21T17:28:58.172Z,6.45
2023-05-21T17:34:01.196Z,5.32
2023-05-21T17:39:04.214Z,6.57
2023-05-21T17:44:07.016Z,7.88
2023-05-21T17:49:09.907Z,7.03
2023-05-21T17:54:12.744Z,7.07
2023-05-21T17:59:16.868Z,7.20
2023-05-21T18:04:20.044Z,7.27
2023-05-21T18:09:23.176Z,8.82
2023-05-21T18:14:26.166Z,5.40
2023-05-21T18:19:30.275Z,6.40
2023-05-21T18:24:33.277Z,5.13
2023-05-21T18:29:37.097Z,5.97
2023-05-21T18:34:42.010Z,6.95
2023-05-21T18:39:44.906Z,5.68
2023-05-21T18:44:50.902Z,7.05
2023-05-21T18:49:53.645Z,5.93
2023-05-21T18:54:56.555Z,9.27
2023-05-21T19:00:00.359Z,5.20
2023-05-21T19:05:03.760Z,6.35
2023-05-21T19:10:07.616Z,6.10
2023-05-21T19:15:11.102Z,5.25
2023-05-21T19:20:26.534Z,10.23
2023-05-21T19:25:29.217Z,6.50
2023-05-21T19:30:35.100Z,6.35
2023-05-21T19:35:38.413Z,5.60
2023-05-21T19:40:41.520Z,6.93
2023-05-21T19:45:44.465Z,7.23
2023-05-21T19:50:47.469Z,6.77
2023-05-21T19:55:50.418Z,6.25
2023-05-21T20:00:56.170Z,8.52
2023-05-21T20:05:59.080Z,7.55
2023-05-21T20:11:01.932Z,8.43
2023-05-21T20:16:05.057Z,9.75
2023-05-21T20:21:07.864Z,8.32
2023-05-21T20:26:10.928Z,9.23
2023-05-21T20:31:14.077Z,7.05
2023-05-21T20:36:17.931Z,7.93
2023-05-21T20:41:22.095Z,9.48
2023-05-21T20:46:26.016Z,10.55
2023-05-21T20:51:28.782Z,7.25
2023-05-21T20:56:41.596Z,7.82
2023-05-21T21:01:45.611Z,8.57
2023-05-21T21:06:48.622Z,7.38
2023-05-21T21:11:51.785Z,8.00
2023-05-21T21:16:54.790Z,7.53
2023-05-21T21:21:57.803Z,7.22
2023-05-21T21:27:00.487Z,8.07
2023-05-21T21:32:03.324Z,9.77
2023-05-21T21:37:06.232Z,7.68
2023-05-21T21:42:09.221Z,9.52
2023-05-21T21:47:12.420Z,8.85
2023-05-21T21:52:15.386Z,10.30
2023-05-21T21:57:18.248Z,8.25
2023-05-21T22:02:21.107Z,7.85
2023-05-21T22:07:24.098Z,7.80
2023-05-21T22:12:27.385Z,11.38
2023-05-21T22:17:30.184Z,8.77
2023-05-21T22:22:32.994Z,8.80
2023-05-21T22:27:36.750Z,7.80
2023-05-21T22:32:40.304Z,8.18
2023-05-21T22:37:43.157Z,7.72
2023-05-21T22:42:47.376Z,6.77
2023-05-21T22:47:52.247Z,7.35
2023-05-21T22:52:55.386Z,9.50
2023-05-21T22:57:58.218Z,9.45
2023-05-21T23:03:01.239Z,7.65
2023-05-21T23:08:04.099Z,7.93
2023-05-21T23:13:06.967Z,8.20
2023-05-21T23:18:10.367Z,8.40
2023-05-21T23:23:13.101Z,7.72
2023-05-21T23:28:15.808Z,9.40
2023-05-21T23:33:18.987Z,7.27
2023-05-21T23:38:21.842Z,9.15
2023-05-21T23:43:24.674Z,7.97
2023-05-21T23:48:27.448Z,8.73
2023-05-21T23:53:30.229Z,6.95
2023-05-21T23:58:32.891Z,6.43
